createdAt,value
2019-03-11T00:01:32.890Z,40.91
2019-03-11T00:04:07.705Z,40.77
2019-03-11T00:06:39.326Z,40.46
2019-03-11T00:09:09.893Z,42.13
2019-03-11T00:11:43.150Z,41.17
2019-03-11T00:14:13.157Z,41.57
2019-03-11T00:16:43.709Z,41.30
2019-03-11T00:19:14.967Z,41.06
2019-03-11T00:21:45.347Z,41.12
2019-03-11T00:24:16.724Z,41.97
2019-03-11T00:26:47.022Z,41.29
2019-03-11T00:29:19.675Z,41.33
2019-03-11T00:31:49.284Z,41.19
2019-03-11T00:34:19.531Z,41.94
2019-03-11T00:36:49.544Z,42.57
2019-03-11T00:39:19.543Z,42.79
2019-03-11T00:41:50.822Z,42.38
2019-03-11T00:44:20.922Z,42.38
2019-03-11T00:46:51.358Z,42.49
2019-03-11T00:49:21.573Z,42.50
2019-03-11T00:51:50.921Z,42.75
2019-03-11T00:54:21.708Z,43.35
2019-03-11T00:56:55.066Z,43.21
2019-03-11T00:59:26.130Z,43.03
2019-03-11T01:01:56.256Z,42.45
2019-03-11T01:04:27.322Z,42.79
2019-03-11T01:06:58.047Z,42.66
2019-03-11T01:09:28.579Z,42.53
2019-03-11T01:11:59.476Z,42.67
2019-03-11T01:14:29.663Z,43.35
2019-03-11T01:16:59.917Z,43.35
2019-03-11T01:19:30.213Z,42.45
2019-03-11T01:22:00.317Z,42.76
2019-03-11T01:24:29.890Z,42.55
2019-03-11T01:27:00.394Z,43.48
2019-03-11T01:29:31.107Z,43.21
2019-03-11T01:32:01.082Z,44.28
2019-03-11T01:34:31.724Z,43.45
2019-03-11T01:37:01.306Z,43.15
2019-03-11T01:39:31.936Z,43.61
2019-03-11T01:42:02.341Z,43.85
2019-03-11T01:44:32.717Z,44.21
2019-03-11T01:47:02.461Z,44.06
2019-03-11T01:49:32.081Z,44.26
2019-03-11T01:52:02.695Z,44.26
2019-03-11T01:54:31.706Z,44.80
2019-03-11T01:57:01.718Z,44.07
2019-03-11T01:59:32.138Z,44.75
2019-03-11T02:02:02.753Z,44.43
2019-03-11T02:04:31.689Z,44.22
2019-03-11T02:07:01.709Z,44.74
2019-03-11T02:09:32.174Z,44.97
2019-03-11T02:12:02.327Z,45.13
2019-03-11T02:14:34.324Z,45.50
2019-03-11T02:17:03.975Z,45.44
2019-03-11T02:19:33.853Z,45.52
2019-03-11T02:22:03.605Z,45.28
2019-03-11T02:24:32.684Z,46.66
2019-03-11T02:27:02.877Z,46.09
2019-03-11T02:29:32.805Z,45.87
2019-03-11T02:32:02.731Z,45.41
2019-03-11T02:34:32.507Z,45.06
2019-03-11T02:37:02.762Z,45.68
2019-03-11T02:39:31.696Z,45.68
2019-03-11T02:42:01.576Z,45.03
2019-03-11T02:44:32.693Z,45.31
2019-03-11T02:47:01.502Z,44.90
2019-03-11T02:49:30.493Z,44.54
2019-03-11T02:52:00.131Z,44.00
2019-03-11T02:54:30.406Z,44.00
2019-03-11T02:57:00.061Z,44.04
2019-03-11T02:59:29.565Z,44.42
2019-03-11T03:02:30.697Z,44.63
2019-03-11T03:05:34.906Z,44.63
2019-03-11T03:08:05.562Z,44.31
2019-03-11T03:10:34.906Z,43.37
2019-03-11T03:13:04.622Z,43.02
2019-03-11T03:15:33.466Z,43.75
2019-03-11T03:18:03.332Z,44.86
2019-03-11T03:20:33.196Z,44.86
2019-03-11T03:23:03.328Z,44.82
2019-03-11T03:25:34.896Z,44.76
2019-03-11T03:28:05.283Z,44.94
2019-03-11T03:30:35.604Z,43.28
2019-03-11T03:33:04.561Z,43.28
2019-03-11T03:35:33.464Z,42.95
2019-03-11T03:38:03.714Z,43.93
2019-03-11T03:40:33.718Z,43.93
2019-03-11T03:43:02.616Z,44.01
2019-03-11T03:45:41.056Z,43.30
2019-03-11T03:48:12.305Z,43.72
2019-03-11T03:50:41.987Z,43.20
2019-03-11T03:53:12.110Z,42.87
2019-03-11T03:55:42.034Z,42.98
2019-03-11T03:58:11.947Z,45.04
2019-03-11T04:00:41.530Z,46.35
2019-03-11T04:03:11.510Z,46.73
2019-03-11T04:05:41.322Z,48.59
2019-03-11T04:08:10.985Z,48.59
2019-03-11T04:10:40.682Z,48.50
2019-03-11T04:13:10.702Z,50.28
2019-03-11T04:15:40.671Z,51.68
2019-03-11T04:18:10.984Z,50.71
2019-03-11T04:20:40.469Z,50.71
2019-03-11T04:23:10.790Z,51.97
2019-03-11T04:25:41.054Z,51.97
2019-03-11T04:28:11.032Z,53.41
2019-03-11T04:30:40.773Z,52.33
2019-03-11T04:33:10.895Z,52.10
2019-03-11T04:35:41.061Z,52.25
2019-03-11T04:38:11.853Z,52.62
2019-03-11T04:40:42.164Z,52.60
2019-03-11T04:43:13.522Z,52.95
2019-03-11T04:45:43.587Z,51.91
2019-03-11T04:48:13.453Z,51.39
2019-03-11T04:50:43.685Z,51.79
2019-03-11T04:53:14.324Z,51.79
2019-03-11T04:55:45.317Z,52.91
2019-03-11T04:58:15.064Z,52.57
2019-03-11T05:00:48.393Z,52.79
2019-03-11T05:03:17.851Z,52.70
2019-03-11T05:05:47.686Z,52.69
2019-03-11T05:08:17.906Z,53.33
2019-03-11T05:10:48.004Z,53.44
2019-03-11T05:13:17.814Z,54.48
2019-03-11T05:15:49.045Z,54.10
2019-03-11T05:18:20.394Z,53.53
2019-03-11T05:20:50.549Z,54.41
2019-03-11T05:23:19.469Z,54.57
2019-03-11T05:25:50.905Z,55.78
2019-03-11T05:28:21.138Z,55.93
2019-03-11T05:30:52.851Z,56.59
2019-03-11T05:33:23.012Z,56.01
2019-03-11T05:35:53.892Z,56.50
2019-03-11T05:38:24.544Z,57.30
2019-03-11T05:40:56.077Z,57.37
2019-03-11T05:43:26.024Z,57.37
2019-03-11T05:45:56.961Z,57.43
2019-03-11T05:48:27.174Z,57.90
2019-03-11T05:50:57.567Z,59.23
2019-03-11T05:53:29.159Z,59.13
2019-03-11T05:56:01.049Z,58.82
2019-03-11T05:58:31.621Z,58.66
2019-03-11T06:01:02.024Z,58.01
2019-03-11T06:03:32.056Z,58.32
2019-03-11T06:06:02.489Z,57.65
2019-03-11T06:08:32.153Z,57.62
2019-03-11T06:11:50.546Z,57.42
2019-03-11T06:14:20.430Z,56.78
2019-03-11T06:16:51.586Z,56.35
2019-03-11T06:19:23.212Z,56.35
2019-03-11T06:21:59.972Z,55.48
2019-03-11T06:24:32.488Z,54.32
2019-03-11T06:27:01.822Z,53.42
2019-03-11T06:29:32.551Z,52.94
2019-03-11T06:32:02.275Z,52.17
2019-03-11T06:34:33.726Z,51.09
2019-03-11T06:37:04.055Z,50.31
2019-03-11T06:39:34.697Z,49.13
2019-03-11T06:42:05.663Z,47.96
2019-03-11T06:44:37.125Z,48.25
2019-03-11T06:47:07.655Z,48.25
2019-03-11T06:49:37.387Z,47.59
2019-03-11T06:52:07.713Z,47.81
2019-03-11T06:54:38.091Z,48.24
2019-03-11T06:57:09.227Z,47.88
2019-03-11T06:59:39.538Z,48.02
2019-03-11T07:02:08.905Z,47.13
2019-03-11T07:04:39.800Z,46.80
2019-03-11T07:07:11.964Z,46.33
2019-03-11T07:09:42.806Z,45.01
2019-03-11T07:12:13.529Z,44.83
2019-03-11T07:14:42.835Z,47.16
2019-03-11T07:17:13.811Z,47.16
2019-03-11T07:19:43.589Z,45.40
2019-03-11T07:22:14.666Z,44.14
2019-03-11T07:24:45.090Z,44.14
2019-03-11T07:27:15.628Z,44.29
2019-03-11T07:29:45.936Z,44.46
2019-03-11T07:32:16.013Z,43.56
2019-03-11T07:34:46.134Z,43.34
2019-03-11T07:37:17.052Z,42.95
2019-03-11T07:39:47.999Z,42.31
2019-03-11T07:42:18.191Z,42.25
2019-03-11T07:44:47.998Z,42.20
2019-03-11T07:47:18.477Z,41.91
2019-03-11T07:49:48.750Z,42.29
2019-03-11T07:52:18.647Z,43.04
2019-03-11T07:54:49.097Z,42.22
2019-03-11T07:57:19.675Z,41.61
2019-03-11T07:59:49.413Z,42.76
2019-03-11T08:02:19.506Z,41.90
2019-03-11T08:04:48.482Z,43.38
2019-03-11T08:07:20.295Z,52.07
2019-03-11T08:09:50.719Z,52.77
2019-03-11T08:12:22.094Z,52.77
2019-03-11T08:14:52.530Z,52.31
2019-03-11T08:17:21.956Z,52.63
2019-03-11T08:19:52.544Z,53.28
2019-03-11T08:22:21.786Z,52.62
2019-03-11T08:24:52.322Z,52.46
2019-03-11T08:27:22.553Z,51.91
2019-03-11T08:29:52.746Z,58.82
2019-03-11T08:32:25.581Z,58.82
2019-03-11T08:34:55.487Z,60.76
2019-03-11T08:37:25.956Z,61.92
2019-03-11T08:39:56.667Z,61.92
2019-03-11T08:42:29.515Z,61.66
2019-03-11T08:44:59.733Z,61.80
2019-03-11T08:47:30.307Z,59.51
2019-03-11T08:50:00.997Z,59.15
2019-03-11T08:52:31.101Z,48.77
2019-03-11T08:55:02.057Z,39.55
2019-03-11T08:57:33.298Z,33.60
2019-03-11T09:00:03.847Z,29.34
2019-03-11T09:02:36.779Z,29.96
2019-03-11T09:05:10.156Z,26.99
2019-03-11T09:07:40.080Z,27.00
2019-03-11T09:10:15.705Z,28.44
2019-03-11T09:12:46.316Z,29.17
2019-03-11T09:15:18.134Z,29.64
2019-03-11T09:17:50.303Z,26.50
2019-03-11T09:20:22.603Z,26.16
2019-03-11T09:22:51.957Z,28.25
2019-03-11T09:25:22.921Z,29.20
2019-03-11T09:27:54.694Z,31.32
2019-03-11T09:30:25.547Z,32.37
2019-03-11T09:32:57.417Z,31.96
2019-03-11T09:35:27.707Z,33.35
2019-03-11T09:37:59.034Z,35.15
2019-03-11T09:40:30.597Z,35.96
2019-03-11T09:43:01.327Z,35.53
2019-03-11T09:45:33.484Z,35.53
2019-03-11T09:48:05.282Z,33.80
2019-03-11T09:50:36.612Z,33.80
2019-03-11T09:53:13.312Z,32.31
2019-03-11T09:55:42.983Z,29.80
2019-03-11T09:58:13.496Z,27.51
2019-03-11T10:00:45.032Z,29.43
2019-03-11T10:03:15.341Z,29.43
2019-03-11T10:05:45.307Z,31.56
2019-03-11T10:08:16.434Z,30.50
2019-03-11T10:10:45.668Z,30.15
2019-03-11T10:13:16.296Z,29.37
2019-03-11T10:15:47.229Z,27.38
2019-03-11T10:18:19.177Z,28.96
2019-03-11T10:20:49.576Z,28.90
2019-03-11T10:23:19.689Z,29.02
2019-03-11T10:25:51.065Z,29.54
2019-03-11T10:28:21.356Z,29.76
2019-03-11T10:30:52.159Z,30.62
2019-03-11T10:33:23.630Z,29.78
2019-03-11T10:35:54.677Z,29.54
2019-03-11T10:38:25.658Z,29.20
2019-03-11T10:40:55.687Z,27.44
2019-03-11T10:43:30.305Z,26.99
2019-03-11T10:46:00.526Z,26.86
2019-03-11T10:48:37.093Z,25.45
2019-03-11T10:51:05.436Z,25.25
2019-03-11T10:53:36.531Z,27.07
2019-03-11T10:56:08.441Z,27.07
2019-03-11T10:58:43.761Z,29.22
2019-03-11T11:01:14.109Z,28.94
2019-03-11T11:03:46.150Z,29.31
2019-03-11T11:06:18.961Z,29.21
2019-03-11T11:08:49.951Z,29.03
2019-03-11T11:11:22.216Z,28.06
2019-03-11T11:13:53.546Z,28.06
2019-03-11T11:16:23.908Z,29.09
2019-03-11T11:18:55.335Z,29.09
2019-03-11T11:21:25.662Z,30.21
2019-03-11T11:23:55.827Z,29.23
2019-03-11T11:26:26.037Z,29.02
2019-03-11T11:28:56.045Z,29.67
2019-03-11T11:31:26.767Z,31.26
2019-03-11T11:33:57.111Z,31.92
2019-03-11T11:36:27.543Z,32.93
2019-03-11T11:38:58.322Z,33.65
2019-03-11T11:41:29.330Z,33.65
2019-03-11T11:43:59.308Z,33.66
2019-03-11T11:46:29.315Z,33.48
2019-03-11T11:48:59.534Z,34.11
2019-03-11T11:51:29.319Z,32.92
2019-03-11T11:54:02.053Z,32.92
2019-03-11T11:56:32.583Z,32.28
2019-03-11T11:59:03.555Z,30.94
2019-03-11T12:01:33.583Z,30.54
2019-03-11T12:04:03.752Z,28.82
2019-03-11T12:06:35.126Z,28.82
2019-03-11T12:09:05.868Z,28.52
2019-03-11T12:11:38.073Z,24.93
2019-03-11T12:14:12.633Z,23.42
2019-03-11T12:16:42.500Z,23.57
2019-03-11T12:19:12.556Z,25.46
2019-03-11T12:21:42.196Z,26.57
2019-03-11T12:24:12.665Z,26.57
2019-03-11T12:26:46.114Z,27.90
2019-03-11T12:29:16.146Z,29.29
2019-03-11T12:31:46.721Z,30.80
2019-03-11T12:34:16.843Z,29.12
2019-03-11T12:36:46.584Z,25.12
2019-03-11T12:39:16.274Z,22.50
2019-03-11T12:41:47.926Z,20.92
2019-03-11T12:44:19.608Z,19.72
2019-03-11T12:46:49.870Z,20.81
2019-03-11T12:49:20.581Z,22.52
2019-03-11T12:51:50.353Z,22.54
2019-03-11T12:54:20.946Z,22.54
2019-03-11T12:56:50.960Z,20.52
2019-03-11T12:59:23.327Z,20.31
2019-03-11T13:01:53.842Z,23.41
2019-03-11T13:04:24.847Z,25.78
2019-03-11T13:06:55.964Z,25.51
2019-03-11T13:09:26.322Z,23.88
2019-03-11T13:11:57.323Z,21.92
2019-03-11T13:14:28.315Z,20.70
2019-03-11T13:16:59.114Z,22.88
2019-03-11T13:19:31.173Z,22.88
2019-03-11T13:22:05.319Z,23.94
2019-03-11T13:24:35.619Z,25.67
2019-03-11T13:27:06.536Z,25.41
2019-03-11T13:29:38.485Z,23.59
2019-03-11T13:32:08.950Z,24.28
2019-03-11T13:34:39.332Z,27.40
2019-03-11T13:37:09.794Z,28.86
2019-03-11T13:39:41.569Z,29.58
2019-03-11T13:42:11.286Z,29.39
2019-03-11T13:44:41.968Z,28.42
2019-03-11T13:47:11.999Z,28.89
2019-03-11T13:49:45.518Z,26.25
2019-03-11T13:52:15.715Z,25.45
2019-03-11T13:54:46.784Z,25.45
2019-03-11T13:57:19.070Z,26.33
2019-03-11T13:59:49.310Z,29.37
2019-03-11T14:02:20.116Z,28.78
2019-03-11T14:04:51.577Z,29.04
2019-03-11T14:07:21.673Z,29.08
2019-03-11T14:09:51.861Z,27.33
2019-03-11T14:12:22.309Z,26.07
2019-03-11T14:14:52.139Z,24.91
2019-03-11T14:17:23.548Z,26.28
2019-03-11T14:19:54.642Z,28.96
2019-03-11T14:22:24.466Z,28.96
2019-03-11T14:24:55.582Z,29.47
2019-03-11T14:27:26.622Z,29.47
2019-03-11T14:29:56.191Z,29.71
2019-03-11T14:32:26.062Z,29.46
2019-03-11T14:34:56.606Z,29.43
2019-03-11T14:37:26.309Z,31.07
2019-03-11T14:39:56.273Z,31.07
2019-03-11T14:42:28.939Z,32.09
2019-03-11T14:44:59.644Z,31.97
2019-03-11T14:47:29.605Z,33.74
2019-03-11T14:49:59.200Z,33.17
2019-03-11T14:52:29.008Z,34.06
2019-03-11T14:54:58.864Z,33.73
2019-03-11T14:57:28.673Z,35.16
2019-03-11T14:59:58.613Z,35.07
2019-03-11T15:02:29.320Z,34.80
2019-03-11T15:05:29.975Z,36.37
2019-03-11T15:08:00.521Z,36.52
2019-03-11T15:10:31.316Z,36.77
2019-03-11T15:13:00.857Z,36.74
2019-03-11T15:15:31.123Z,36.60
2019-03-11T15:18:01.795Z,37.06
2019-03-11T15:20:31.507Z,36.93
2019-03-11T15:23:06.249Z,36.73
2019-03-11T15:25:34.574Z,36.73
2019-03-11T15:28:05.343Z,37.88
2019-03-11T15:30:35.164Z,36.80
2019-03-11T15:33:06.591Z,37.32
2019-03-11T15:35:37.708Z,36.65
2019-03-11T15:38:12.560Z,36.79
2019-03-11T15:40:42.922Z,36.34
2019-03-11T15:43:13.682Z,36.64
2019-03-11T15:45:43.518Z,36.10
2019-03-11T15:48:13.577Z,34.96
2019-03-11T15:50:43.045Z,34.96
2019-03-11T15:53:13.707Z,35.62
2019-03-11T15:55:44.913Z,36.11
2019-03-11T15:58:15.023Z,35.53
2019-03-11T16:00:45.117Z,34.96
2019-03-11T16:03:15.512Z,34.48
2019-03-11T16:05:45.815Z,34.76
2019-03-11T16:08:16.068Z,34.76
2019-03-11T16:10:47.535Z,35.07
2019-03-11T16:13:18.526Z,53.86
2019-03-11T16:16:07.810Z,58.96
2019-03-11T16:18:42.133Z,58.96
2019-03-11T16:21:18.014Z,62.93
2019-03-11T16:24:01.130Z,60.59
2019-03-11T16:26:45.547Z,62.05
2019-03-11T16:29:24.566Z,61.06
2019-03-11T16:32:03.755Z,60.27
2019-03-11T16:34:40.927Z,60.27
2019-03-11T16:37:22.690Z,60.60
2019-03-11T16:40:25.628Z,60.85
2019-03-11T16:42:58.252Z,61.09
2019-03-11T16:45:31.672Z,61.16
2019-03-11T16:48:24.548Z,60.06
2019-03-11T16:50:55.568Z,59.64
2019-03-11T16:53:31.538Z,59.64
2019-03-11T16:56:04.718Z,57.97
2019-03-11T16:58:38.633Z,58.15
2019-03-11T17:01:14.188Z,57.87
2019-03-11T17:03:44.558Z,56.94
2019-03-11T17:06:20.329Z,59.16
2019-03-11T17:08:53.345Z,61.08
2019-03-11T17:11:23.918Z,62.03
2019-03-11T17:13:54.820Z,60.42
2019-03-11T17:16:25.897Z,62.76
2019-03-11T17:18:56.321Z,64.01
2019-03-11T17:21:27.875Z,63.81
2019-03-11T17:23:57.492Z,65.21
2019-03-11T17:26:27.410Z,63.50
2019-03-11T17:28:57.560Z,63.50
2019-03-11T17:31:27.577Z,65.11
2019-03-11T17:33:56.547Z,65.11
2019-03-11T17:36:26.586Z,65.16
2019-03-11T17:38:55.515Z,65.16
2019-03-11T17:41:25.911Z,68.20
2019-03-11T17:43:57.276Z,68.20
2019-03-11T17:46:27.281Z,67.80
2019-03-11T17:48:58.144Z,66.87
2019-03-11T17:51:28.133Z,64.62
2019-03-11T17:53:58.322Z,65.63
2019-03-11T17:56:28.560Z,65.56
2019-03-11T17:58:58.265Z,64.32
2019-03-11T18:01:28.504Z,65.12
2019-03-11T18:03:58.618Z,65.35
2019-03-11T18:06:27.504Z,65.35
2019-03-11T18:08:57.732Z,66.36
2019-03-11T18:11:29.720Z,64.98
2019-03-11T18:14:07.101Z,63.39
2019-03-11T18:16:41.258Z,63.90
2019-03-11T18:19:13.733Z,62.64
2019-03-11T18:21:45.003Z,63.63
2019-03-11T18:24:17.178Z,63.33
2019-03-11T18:26:47.515Z,62.32
2019-03-11T18:29:17.432Z,63.42
2019-03-11T18:31:48.713Z,59.55
2019-03-11T18:34:19.963Z,59.55
2019-03-11T18:36:49.922Z,58.47
2019-03-11T18:39:27.269Z,59.25
2019-03-11T18:41:57.916Z,57.67
2019-03-11T18:44:27.781Z,58.47
2019-03-11T18:46:58.321Z,58.45
2019-03-11T18:49:31.161Z,56.75
2019-03-11T18:52:01.228Z,55.63
2019-03-11T18:54:31.245Z,57.89
2019-03-11T18:57:02.342Z,55.96
2019-03-11T18:59:32.840Z,53.07
2019-03-11T19:02:07.377Z,52.35
2019-03-11T19:04:39.887Z,51.14
2019-03-11T19:07:11.870Z,52.91
2019-03-11T19:09:42.064Z,52.10
2019-03-11T19:12:12.806Z,52.32
2019-03-11T19:14:43.745Z,50.86
2019-03-11T19:17:16.909Z,51.31
2019-03-11T19:19:47.763Z,51.30
2019-03-11T19:22:20.481Z,51.57
2019-03-11T19:24:51.014Z,50.62
2019-03-11T19:27:22.164Z,49.01
2019-03-11T19:29:53.579Z,49.58
2019-03-11T19:32:22.634Z,48.30
2019-03-11T19:34:53.627Z,48.68
2019-03-11T19:37:24.535Z,48.61
2019-03-11T19:39:54.460Z,48.73
2019-03-11T19:42:26.074Z,50.41
2019-03-11T19:44:57.142Z,50.41
2019-03-11T19:47:27.137Z,50.91
2019-03-11T19:49:57.404Z,52.17
2019-03-11T19:52:28.520Z,51.73
2019-03-11T19:55:02.066Z,49.92
2019-03-11T19:57:33.468Z,49.92
2019-03-11T20:00:05.820Z,48.65
2019-03-11T20:02:36.572Z,48.65
2019-03-11T20:05:07.528Z,46.75
2019-03-11T20:07:40.617Z,46.68
2019-03-11T20:10:12.167Z,46.60
2019-03-11T20:12:47.409Z,45.86
2019-03-11T20:15:19.568Z,45.09
2019-03-11T20:17:49.828Z,45.92
2019-03-11T20:20:24.163Z,45.51
2019-03-11T20:23:02.254Z,45.70
2019-03-11T20:25:34.803Z,45.75
2019-03-11T20:28:06.006Z,45.75
2019-03-11T20:30:38.109Z,45.70
2019-03-11T20:33:08.546Z,45.91
2019-03-11T20:35:38.938Z,46.00
2019-03-11T20:38:09.670Z,45.07
2019-03-11T20:40:41.423Z,44.31
2019-03-11T20:43:12.311Z,44.46
2019-03-11T20:45:44.584Z,44.19
2019-03-11T20:48:14.194Z,43.69
2019-03-11T20:50:44.579Z,44.00
2019-03-11T20:53:16.702Z,43.17
2019-03-11T20:55:47.209Z,43.98
2019-03-11T20:58:18.381Z,44.51
2019-03-11T21:00:48.737Z,42.83
2019-03-11T21:03:21.664Z,44.29
2019-03-11T21:05:53.917Z,44.23
2019-03-11T21:08:24.835Z,44.10
2019-03-11T21:10:55.886Z,43.32
2019-03-11T21:13:26.541Z,42.53
2019-03-11T21:15:56.157Z,43.09
2019-03-11T21:18:26.602Z,42.98
2019-03-11T21:21:04.884Z,44.56
2019-03-11T21:23:26.932Z,43.50
2019-03-11T21:25:58.630Z,43.97
2019-03-11T21:28:27.731Z,43.97
2019-03-11T21:30:57.838Z,43.07
2019-03-11T21:33:28.069Z,43.22
2019-03-11T21:35:58.549Z,43.90
2019-03-11T21:38:31.470Z,44.49
2019-03-11T21:41:03.909Z,43.53
2019-03-11T21:43:35.013Z,43.53
2019-03-11T21:46:06.377Z,43.42
2019-03-11T21:48:51.807Z,44.65
2019-03-11T21:51:49.598Z,44.73
2019-03-11T21:54:19.633Z,44.30
2019-03-11T21:56:55.463Z,44.12
2019-03-11T21:59:33.208Z,44.16
2019-03-11T22:02:14.365Z,44.77
2019-03-11T22:04:45.656Z,45.26
2019-03-11T22:07:16.144Z,44.79
2019-03-11T22:09:47.478Z,44.29
2019-03-11T22:12:17.908Z,44.88
2019-03-11T22:14:47.918Z,44.17
2019-03-11T22:17:18.164Z,44.37
2019-03-11T22:19:48.133Z,43.47
2019-03-11T22:22:18.006Z,43.90
2019-03-11T22:24:48.166Z,44.09
2019-03-11T22:27:18.191Z,44.68
2019-03-11T22:29:48.638Z,45.15
2019-03-11T22:32:18.672Z,44.14
2019-03-11T22:34:48.769Z,44.50
2019-03-11T22:37:18.681Z,44.41
2019-03-11T22:39:48.830Z,44.07
2019-03-11T22:42:18.673Z,44.07
2019-03-11T22:44:49.522Z,44.18
2019-03-11T22:47:19.823Z,44.19
2019-03-11T22:49:49.808Z,44.19
2019-03-11T22:52:20.636Z,44.64
2019-03-11T22:54:50.571Z,45.14
2019-03-11T22:57:19.511Z,44.15
2019-03-11T22:59:50.020Z,44.15
2019-03-11T23:02:19.882Z,44.38
2019-03-11T23:04:49.677Z,44.60
2019-03-11T23:07:19.743Z,45.23
2019-03-11T23:09:49.522Z,45.23
2019-03-11T23:12:19.752Z,44.87
2019-03-11T23:14:50.820Z,44.87
2019-03-11T23:17:21.763Z,45.33
2019-03-11T23:19:52.339Z,44.60
2019-03-11T23:22:21.872Z,44.92
2019-03-11T23:24:51.505Z,44.36
2019-03-11T23:27:21.317Z,44.50
2019-03-11T23:29:52.012Z,44.50
2019-03-11T23:32:21.688Z,44.48
2019-03-11T23:34:51.318Z,44.57
2019-03-11T23:37:20.907Z,45.40
2019-03-11T23:39:50.730Z,45.41
2019-03-11T23:42:20.703Z,45.62
2019-03-11T23:44:50.679Z,45.15
2019-03-11T23:47:20.457Z,45.45
2019-03-11T23:49:50.499Z,45.47
2019-03-11T23:52:20.502Z,45.70
2019-03-11T23:54:50.353Z,45.25
2019-03-11T23:57:20.313Z,45.25
2019-03-11T23:59:50.487Z,45.73
